sensor_id;sensor_type;location;lat;lon;timestamp;temperature;humidity
28530;DHT22;15737;49.760;6.632;2022-09-20T00:02:17;7.80;99.90
28530;DHT22;15737;49.760;6.632;2022-09-20T00:04:43;7.80;99.90
28530;DHT22;15737;49.760;6.632;2022-09-20T00:07:08;7.90;99.90
28530;DHT22;15737;49.760;6.632;2022-09-20T00:09:34;7.80;99.90
28530;DHT22;15737;49.760;6.632;2022-09-20T00:12:00;7.80;99.90
28530;DHT22;15737;49.760;6.632;2022-09-20T00:14:26;7.80;99.90
28530;DHT22;15737;49.760;6.632;2022-09-20T00:16:51;7.80;99.90
28530;DHT22;15737;49.760;6.632;2022-09-20T00:19:19;7.90;99.90
28530;DHT22;15737;49.760;6.632;2022-09-20T00:21:45;8.00;99.90
28530;DHT22;15737;49.760;6.632;2022-09-20T00:24:11;8.10;99.90
28530;DHT22;15737;49.760;6.632;2022-09-20T00:26:36;8.10;99.90
28530;DHT22;15737;49.760;6.632;2022-09-20T00:29:02;8.10;99.90
28530;DHT22;15737;49.760;6.632;2022-09-20T00:31:28;8.00;99.90
28530;DHT22;15737;49.760;6.632;2022-09-20T00:33:55;8.00;99.90
28530;DHT22;15737;49.760;6.632;2022-09-20T00:36:39;8.00;99.90
28530;DHT22;15737;49.760;6.632;2022-09-20T00:39:05;8.00;99.90
28530;DHT22;15737;49.760;6.632;2022-09-20T00:41:31;8.00;99.90
28530;DHT22;15737;49.760;6.632;2022-09-20T00:43:58;8.00;99.90
28530;DHT22;15737;49.760;6.632;2022-09-20T00:46:41;8.10;99.90
28530;DHT22;15737;49.760;6.632;2022-09-20T00:49:17;8.20;99.90
28530;DHT22;15737;49.760;6.632;2022-09-20T00:51:47;8.20;99.90
28530;DHT22;15737;49.760;6.632;2022-09-20T00:54:15;8.20;99.90
28530;DHT22;15737;49.760;6.632;2022-09-20T00:56:42;8.20;99.90
28530;DHT22;15737;49.760;6.632;2022-09-20T00:59:28;8.20;99.90
28530;DHT22;15737;49.760;6.632;2022-09-20T01:01:59;8.20;99.90
28530;DHT22;15737;49.760;6.632;2022-09-20T01:07:01;8.30;99.90
28530;DHT22;15737;49.760;6.632;2022-09-20T01:09:28;8.30;99.90
28530;DHT22;15737;49.760;6.632;2022-09-20T01:11:54;8.30;99.90
28530;DHT22;15737;49.760;6.632;2022-09-20T01:14:22;8.30;99.90
28530;DHT22;15737;49.760;6.632;2022-09-20T01:16:49;8.20;99.90
28530;DHT22;15737;49.760;6.632;2022-09-20T01:25:10;8.30;99.90
28530;DHT22;15737;49.760;6.632;2022-09-20T01:27:45;8.30;99.90
28530;DHT22;15737;49.760;6.632;2022-09-20T01:30:15;8.30;99.90
28530;DHT22;15737;49.760;6.632;2022-09-20T01:35:11;8.40;99.90
28530;DHT22;15737;49.760;6.632;2022-09-20T01:38:12;8.50;99.90
28530;DHT22;15737;49.760;6.632;2022-09-20T01:40:43;8.50;99.90
28530;DHT22;15737;49.760;6.632;2022-09-20T01:48:50;8.50;99.90
28530;DHT22;15737;49.760;6.632;2022-09-20T01:55:20;8.50;99.90
28530;DHT22;15737;49.760;6.632;2022-09-20T02:04:13;8.30;99.90
28530;DHT22;15737;49.760;6.632;2022-09-20T02:09:30;8.30;99.90
28530;DHT22;15737;49.760;6.632;2022-09-20T02:12:32;8.30;99.90
28530;DHT22;15737;49.760;6.632;2022-09-20T02:18:15;8.30;99.90
28530;DHT22;15737;49.760;6.632;2022-09-20T02:20:55;8.40;99.90
28530;DHT22;15737;49.760;6.632;2022-09-20T02:26:36;8.30;99.90
28530;DHT22;15737;49.760;6.632;2022-09-20T02:32:24;8.30;99.90
28530;DHT22;15737;49.760;6.632;2022-09-20T02:35:16;8.30;99.90
28530;DHT22;15737;49.760;6.632;2022-09-20T02:40:34;8.40;99.90
28530;DHT22;15737;49.760;6.632;2022-09-20T02:49:09;8.50;99.90
28530;DHT22;15737;49.760;6.632;2022-09-20T02:52:03;8.60;99.90
28530;DHT22;15737;49.760;6.632;2022-09-20T02:57:33;8.80;99.90
28530;DHT22;15737;49.760;6.632;2022-09-20T03:00:05;8.70;99.90
28530;DHT22;15737;49.760;6.632;2022-09-20T03:05:52;8.70;99.90
28530;DHT22;15737;49.760;6.632;2022-09-20T03:11:18;8.60;99.90
28530;DHT22;15737;49.760;6.632;2022-09-20T03:14:28;8.50;99.90
28530;DHT22;15737;49.760;6.632;2022-09-20T03:20:13;8.60;99.90
28530;DHT22;15737;49.760;6.632;2022-09-20T03:22:57;8.60;99.90
28530;DHT22;15737;49.760;6.632;2022-09-20T03:25:34;8.60;99.90
28530;DHT22;15737;49.760;6.632;2022-09-20T03:28:20;8.60;99.90
28530;DHT22;15737;49.760;6.632;2022-09-20T03:31:23;8.60;99.90
28530;DHT22;15737;49.760;6.632;2022-09-20T03:34:10;8.70;99.90
28530;DHT22;15737;49.760;6.632;2022-09-20T03:39:36;8.70;99.90
28530;DHT22;15737;49.760;6.632;2022-09-20T03:42:13;8.70;99.90
28530;DHT22;15737;49.760;6.632;2022-09-20T04:13:19;8.70;99.90
28530;DHT22;15737;49.760;6.632;2022-09-20T04:21:56;8.60;99.90
28530;DHT22;15737;49.760;6.632;2022-09-20T04:35:34;8.70;99.90
28530;DHT22;15737;49.760;6.632;2022-09-20T04:38:20;8.80;99.90
28530;DHT22;15737;49.760;6.632;2022-09-20T04:54:44;8.70;99.90
28530;DHT22;15737;49.760;6.632;2022-09-20T04:57:32;8.60;99.90
28530;DHT22;15737;49.760;6.632;2022-09-20T05:00:16;8.70;99.90
28530;DHT22;15737;49.760;6.632;2022-09-20T05:06:17;8.70;99.90
28530;DHT22;15737;49.760;6.632;2022-09-20T05:12:10;8.60;99.90
28530;DHT22;15737;49.760;6.632;2022-09-20T05:20:31;8.40;99.90
28530;DHT22;15737;49.760;6.632;2022-09-20T05:25:48;8.40;99.90
28530;DHT22;15737;49.760;6.632;2022-09-20T05:28:27;8.40;99.90
28530;DHT22;15737;49.760;6.632;2022-09-20T05:30:58;8.50;99.90
28530;DHT22;15737;49.760;6.632;2022-09-20T05:33:36;8.60;99.90
28530;DHT22;15737;49.760;6.632;2022-09-20T05:36:16;8.70;99.90
28530;DHT22;15737;49.760;6.632;2022-09-20T05:39:22;8.80;99.90
28530;DHT22;15737;49.760;6.632;2022-09-20T05:44:53;9.10;99.90
28530;DHT22;15737;49.760;6.632;2022-09-20T05:47:31;9.20;99.90
28530;DHT22;15737;49.760;6.632;2022-09-20T05:50:23;9.40;99.90
28530;DHT22;15737;49.760;6.632;2022-09-20T05:52:58;9.50;99.90
28530;DHT22;15737;49.760;6.632;2022-09-20T05:55:29;9.50;99.90
28530;DHT22;15737;49.760;6.632;2022-09-20T05:58:27;9.60;99.90
28530;DHT22;15737;49.760;6.632;2022-09-20T06:01:18;9.70;99.90
28530;DHT22;15737;49.760;6.632;2022-09-20T06:03:52;9.90;99.90
28530;DHT22;15737;49.760;6.632;2022-09-20T06:06:46;9.90;99.90
28530;DHT22;15737;49.760;6.632;2022-09-20T06:12:19;9.70;99.90
28530;DHT22;15737;49.760;6.632;2022-09-20T06:15:09;9.60;99.90
28530;DHT22;15737;49.760;6.632;2022-09-20T06:17:51;9.50;99.90
28530;DHT22;15737;49.760;6.632;2022-09-20T06:20:28;9.50;99.90
28530;DHT22;15737;49.760;6.632;2022-09-20T06:22:57;9.60;99.90
28530;DHT22;15737;49.760;6.632;2022-09-20T06:25:51;9.60;99.90
28530;DHT22;15737;49.760;6.632;2022-09-20T06:28:23;9.80;99.90
28530;DHT22;15737;49.760;6.632;2022-09-20T06:30:51;9.80;99.90
28530;DHT22;15737;49.760;6.632;2022-09-20T06:33:22;9.80;99.90
28530;DHT22;15737;49.760;6.632;2022-09-20T06:39:15;10.10;99.90
28530;DHT22;15737;49.760;6.632;2022-09-20T06:42:02;10.20;99.90
28530;DHT22;15737;49.760;6.632;2022-09-20T06:44:28;10.30;99.90
28530;DHT22;15737;49.760;6.632;2022-09-20T06:46:54;10.40;99.90
28530;DHT22;15737;49.760;6.632;2022-09-20T06:49:20;10.50;99.90
28530;DHT22;15737;49.760;6.632;2022-09-20T06:51:46;10.60;99.90
28530;DHT22;15737;49.760;6.632;2022-09-20T06:54:16;10.70;99.90
28530;DHT22;15737;49.760;6.632;2022-09-20T06:56:43;10.80;99.90
28530;DHT22;15737;49.760;6.632;2022-09-20T06:59:12;11.00;99.90
28530;DHT22;15737;49.760;6.632;2022-09-20T07:01:39;11.40;99.90
28530;DHT22;15737;49.760;6.632;2022-09-20T07:04:05;12.00;99.90
28530;DHT22;15737;49.760;6.632;2022-09-20T07:06:31;13.00;99.90
28530;DHT22;15737;49.760;6.632;2022-09-20T07:08:57;14.50;99.90
28530;DHT22;15737;49.760;6.632;2022-09-20T07:11:23;17.00;99.90
28530;DHT22;15737;49.760;6.632;2022-09-20T07:13:50;20.30;99.90
28530;DHT22;15737;49.760;6.632;2022-09-20T07:16:16;20.60;99.90
28530;DHT22;15737;49.760;6.632;2022-09-20T07:18:41;20.60;99.90
28530;DHT22;15737;49.760;6.632;2022-09-20T07:21:12;22.40;97.40
28530;DHT22;15737;49.760;6.632;2022-09-20T07:23:38;22.60;93.90
28530;DHT22;15737;49.760;6.632;2022-09-20T07:26:04;20.70;95.70
28530;DHT22;15737;49.760;6.632;2022-09-20T07:28:31;19.00;97.60
28530;DHT22;15737;49.760;6.632;2022-09-20T07:30:57;17.50;99.70
28530;DHT22;15737;49.760;6.632;2022-09-20T07:33:23;16.40;99.90
28530;DHT22;15737;49.760;6.632;2022-09-20T07:35:53;15.70;99.90
28530;DHT22;15737;49.760;6.632;2022-09-20T07:38:20;15.40;99.90
28530;DHT22;15737;49.760;6.632;2022-09-20T07:40:53;15.40;99.90
28530;DHT22;15737;49.760;6.632;2022-09-20T07:43:19;15.80;99.90
28530;DHT22;15737;49.760;6.632;2022-09-20T07:45:52;16.50;99.90
28530;DHT22;15737;49.760;6.632;2022-09-20T07:48:23;16.90;99.90
28530;DHT22;15737;49.760;6.632;2022-09-20T07:51:16;17.30;99.90
28530;DHT22;15737;49.760;6.632;2022-09-20T07:53:42;17.00;99.90
28530;DHT22;15737;49.760;6.632;2022-09-20T07:56:14;15.90;99.90
28530;DHT22;15737;49.760;6.632;2022-09-20T07:58:40;15.10;99.90
28530;DHT22;15737;49.760;6.632;2022-09-20T08:01:09;15.10;99.90
28530;DHT22;15737;49.760;6.632;2022-09-20T08:03:35;15.50;99.90
28530;DHT22;15737;49.760;6.632;2022-09-20T08:06:08;15.60;99.90
28530;DHT22;15737;49.760;6.632;2022-09-20T08:08:37;15.70;99.90
28530;DHT22;15737;49.760;6.632;2022-09-20T08:11:05;15.50;99.90
28530;DHT22;15737;49.760;6.632;2022-09-20T08:13:37;15.30;99.90
28530;DHT22;15737;49.760;6.632;2022-09-20T08:16:05;15.60;99.90
28530;DHT22;15737;49.760;6.632;2022-09-20T08:18:32;15.80;99.90
28530;DHT22;15737;49.760;6.632;2022-09-20T08:21:07;16.00;99.90
28530;DHT22;15737;49.760;6.632;2022-09-20T08:23:36;16.10;99.90
28530;DHT22;15737;49.760;6.632;2022-09-20T08:26:04;16.00;99.90
28530;DHT22;15737;49.760;6.632;2022-09-20T08:28:30;15.60;99.90
28530;DHT22;15737;49.760;6.632;2022-09-20T08:31:06;15.10;99.90
28530;DHT22;15737;49.760;6.632;2022-09-20T08:33:32;14.70;99.90
28530;DHT22;15737;49.760;6.632;2022-09-20T08:35:58;14.30;99.90
28530;DHT22;15737;49.760;6.632;2022-09-20T08:38:24;14.40;99.90
28530;DHT22;15737;49.760;6.632;2022-09-20T08:41:11;15.00;99.90
28530;DHT22;15737;49.760;6.632;2022-09-20T08:43:42;16.90;99.90
28530;DHT22;15737;49.760;6.632;2022-09-20T08:46:13;20.30;99.90
28530;DHT22;15737;49.760;6.632;2022-09-20T08:48:39;20.50;99.20
28530;DHT22;15737;49.760;6.632;2022-09-20T08:51:04;20.30;98.20
28530;DHT22;15737;49.760;6.632;2022-09-20T08:53:32;21.60;96.30
28530;DHT22;15737;49.760;6.632;2022-09-20T08:56:01;23.80;91.90
28530;DHT22;15737;49.760;6.632;2022-09-20T08:58:29;23.90;88.10
28530;DHT22;15737;49.760;6.632;2022-09-20T09:00:55;22.70;89.10
28530;DHT22;15737;49.760;6.632;2022-09-20T09:03:22;22.50;88.50
28530;DHT22;15737;49.760;6.632;2022-09-20T09:05:53;21.50;90.10
28530;DHT22;15737;49.760;6.632;2022-09-20T09:08:26;20.90;91.60
28530;DHT22;15737;49.760;6.632;2022-09-20T09:10:55;19.90;92.30
28530;DHT22;15737;49.760;6.632;2022-09-20T09:13:38;18.70;94.20
28530;DHT22;15737;49.760;6.632;2022-09-20T09:16:12;17.80;96.30
28530;DHT22;15737;49.760;6.632;2022-09-20T09:18:40;17.00;97.50
28530;DHT22;15737;49.760;6.632;2022-09-20T09:21:08;16.40;98.70
28530;DHT22;15737;49.760;6.632;2022-09-20T09:23:40;16.30;99.70
28530;DHT22;15737;49.760;6.632;2022-09-20T09:26:21;16.00;99.90
28530;DHT22;15737;49.760;6.632;2022-09-20T09:29:02;15.70;99.90
28530;DHT22;15737;49.760;6.632;2022-09-20T09:31:32;15.40;99.90
28530;DHT22;15737;49.760;6.632;2022-09-20T09:33:57;15.20;99.90
28530;DHT22;15737;49.760;6.632;2022-09-20T09:36:24;14.80;99.90
28530;DHT22;15737;49.760;6.632;2022-09-20T09:39:12;14.60;99.90
28530;DHT22;15737;49.760;6.632;2022-09-20T09:41:36;14.50;99.90
28530;DHT22;15737;49.760;6.632;2022-09-20T09:44:15;14.70;99.90
28530;DHT22;15737;49.760;6.632;2022-09-20T09:46:42;15.30;99.90
28530;DHT22;15737;49.760;6.632;2022-09-20T09:49:14;16.00;99.90
28530;DHT22;15737;49.760;6.632;2022-09-20T09:51:58;16.00;99.90
28530;DHT22;15737;49.760;6.632;2022-09-20T09:54:30;15.80;99.90
28530;DHT22;15737;49.760;6.632;2022-09-20T10:00:13;15.60;99.90
28530;DHT22;15737;49.760;6.632;2022-09-20T10:02:52;15.40;99.90
28530;DHT22;15737;49.760;6.632;2022-09-20T10:08:15;16.10;99.90
28530;DHT22;15737;49.760;6.632;2022-09-20T10:13:35;16.50;99.90
28530;DHT22;15737;49.760;6.632;2022-09-20T10:22:09;16.70;99.90
28530;DHT22;15737;49.760;6.632;2022-09-20T10:30:12;17.80;99.90
28530;DHT22;15737;49.760;6.632;2022-09-20T10:32:59;17.70;99.90
28530;DHT22;15737;49.760;6.632;2022-09-20T10:41:13;19.20;98.70
28530;DHT22;15737;49.760;6.632;2022-09-20T10:44:09;20.10;97.70
28530;DHT22;15737;49.760;6.632;2022-09-20T10:49:16;22.70;94.50
28530;DHT22;15737;49.760;6.632;2022-09-20T11:00:31;24.10;85.80
28530;DHT22;15737;49.760;6.632;2022-09-20T11:03:37;24.70;75.70
28530;DHT22;15737;49.760;6.632;2022-09-20T11:06:24;23.10;74.30
28530;DHT22;15737;49.760;6.632;2022-09-20T11:08:59;21.50;76.80
28530;DHT22;15737;49.760;6.632;2022-09-20T11:11:33;20.20;78.10
28530;DHT22;15737;49.760;6.632;2022-09-20T11:14:12;19.90;82.10
28530;DHT22;15737;49.760;6.632;2022-09-20T11:16:45;20.40;82.20
28530;DHT22;15737;49.760;6.632;2022-09-20T11:19:28;20.80;81.80
28530;DHT22;15737;49.760;6.632;2022-09-20T11:21:57;21.10;79.90
28530;DHT22;15737;49.760;6.632;2022-09-20T11:24:37;20.90;80.30
28530;DHT22;15737;49.760;6.632;2022-09-20T11:27:25;20.60;80.80
28530;DHT22;15737;49.760;6.632;2022-09-20T11:32:51;20.60;83.40
28530;DHT22;15737;49.760;6.632;2022-09-20T11:35:44;20.40;83.10
28530;DHT22;15737;49.760;6.632;2022-09-20T11:38:41;20.00;83.70
28530;DHT22;15737;49.760;6.632;2022-09-20T11:41:19;19.50;84.40
28530;DHT22;15737;49.760;6.632;2022-09-20T11:43:47;18.80;85.60
28530;DHT22;15737;49.760;6.632;2022-09-20T11:46:33;17.90;87.10
28530;DHT22;15737;49.760;6.632;2022-09-20T11:49:14;17.20;90.00
28530;DHT22;15737;49.760;6.632;2022-09-20T11:52:08;17.00;90.80
28530;DHT22;15737;49.760;6.632;2022-09-20T11:57:40;16.80;91.50
28530;DHT22;15737;49.760;6.632;2022-09-20T12:00:06;17.10;91.20
28530;DHT22;15737;49.760;6.632;2022-09-20T12:05:24;19.20;88.30
28530;DHT22;15737;49.760;6.632;2022-09-20T12:07:53;20.60;83.90
28530;DHT22;15737;49.760;6.632;2022-09-20T12:10:24;21.50;82.00
28530;DHT22;15737;49.760;6.632;2022-09-20T12:12:59;22.30;78.10
28530;DHT22;15737;49.760;6.632;2022-09-20T12:28:56;22.40;73.90
28530;DHT22;15737;49.760;6.632;2022-09-20T12:34:03;20.60;76.70
28530;DHT22;15737;49.760;6.632;2022-09-20T12:36:31;19.80;80.30
28530;DHT22;15737;49.760;6.632;2022-09-20T12:41:46;19.00;90.90
28530;DHT22;15737;49.760;6.632;2022-09-20T12:44:35;18.30;91.20
28530;DHT22;15737;49.760;6.632;2022-09-20T12:57:44;18.50;91.40
28530;DHT22;15737;49.760;6.632;2022-09-20T13:00:30;19.90;90.00
28530;DHT22;15737;49.760;6.632;2022-09-20T13:02:57;21.60;84.10
28530;DHT22;15737;49.760;6.632;2022-09-20T13:08:00;22.10;81.10
28530;DHT22;15737;49.760;6.632;2022-09-20T13:10:29;23.20;80.30
28530;DHT22;15737;49.760;6.632;2022-09-20T13:13:01;24.30;76.40
28530;DHT22;15737;49.760;6.632;2022-09-20T13:15:28;25.40;73.70
28530;DHT22;15737;49.760;6.632;2022-09-20T13:17:55;26.90;70.20
28530;DHT22;15737;49.760;6.632;2022-09-20T13:20:25;27.30;67.20
28530;DHT22;15737;49.760;6.632;2022-09-20T13:22:54;26.40;68.20
28530;DHT22;15737;49.760;6.632;2022-09-20T13:25:21;25.10;70.00
28530;DHT22;15737;49.760;6.632;2022-09-20T13:27:56;24.20;72.10
28530;DHT22;15737;49.760;6.632;2022-09-20T13:30:27;23.40;72.70
28530;DHT22;15737;49.760;6.632;2022-09-20T13:33:13;22.10;71.90
28530;DHT22;15737;49.760;6.632;2022-09-20T13:35:39;21.10;74.50
28530;DHT22;15737;49.760;6.632;2022-09-20T13:38:07;20.80;76.00
28530;DHT22;15737;49.760;6.632;2022-09-20T13:40:35;20.20;77.30
28530;DHT22;15737;49.760;6.632;2022-09-20T13:43:05;19.70;78.90
28530;DHT22;15737;49.760;6.632;2022-09-20T13:45:31;19.10;80.70
28530;DHT22;15737;49.760;6.632;2022-09-20T13:47:58;18.50;82.40
28530;DHT22;15737;49.760;6.632;2022-09-20T13:52:58;17.80;86.40
28530;DHT22;15737;49.760;6.632;2022-09-20T13:58:05;17.90;86.70
28530;DHT22;15737;49.760;6.632;2022-09-20T14:00:32;18.40;87.40
28530;DHT22;15737;49.760;6.632;2022-09-20T14:03:00;19.70;85.10
28530;DHT22;15737;49.760;6.632;2022-09-20T14:05:28;20.60;82.70
28530;DHT22;15737;49.760;6.632;2022-09-20T14:07:55;21.30;80.70
28530;DHT22;15737;49.760;6.632;2022-09-20T14:10:31;21.50;79.60
28530;DHT22;15737;49.760;6.632;2022-09-20T14:13:02;21.10;80.30
28530;DHT22;15737;49.760;6.632;2022-09-20T14:15:33;20.90;80.80
28530;DHT22;15737;49.760;6.632;2022-09-20T14:18:00;20.50;81.10
28530;DHT22;15737;49.760;6.632;2022-09-20T14:20:28;20.10;81.40
28530;DHT22;15737;49.760;6.632;2022-09-20T14:22:54;19.80;81.50
28530;DHT22;15737;49.760;6.632;2022-09-20T14:25:25;19.60;81.60
28530;DHT22;15737;49.760;6.632;2022-09-20T14:30:29;19.30;80.50
28530;DHT22;15737;49.760;6.632;2022-09-20T14:32:57;19.70;80.00
28530;DHT22;15737;49.760;6.632;2022-09-20T14:35:23;20.00;77.90
28530;DHT22;15737;49.760;6.632;2022-09-20T14:37:58;19.20;78.10
28530;DHT22;15737;49.760;6.632;2022-09-20T14:40:40;18.80;79.60
28530;DHT22;15737;49.760;6.632;2022-09-20T14:43:15;18.90;80.10
28530;DHT22;15737;49.760;6.632;2022-09-20T14:45:51;19.00;80.40
28530;DHT22;15737;49.760;6.632;2022-09-20T14:50:44;19.20;81.00
28530;DHT22;15737;49.760;6.632;2022-09-20T14:55:58;18.30;84.70
28530;DHT22;15737;49.760;6.632;2022-09-20T14:58:23;17.90;86.80
28530;DHT22;15737;49.760;6.632;2022-09-20T15:03:38;17.30;88.90
28530;DHT22;15737;49.760;6.632;2022-09-20T15:06:10;17.00;89.70
28530;DHT22;15737;49.760;6.632;2022-09-20T15:08:37;16.80;90.20
28530;DHT22;15737;49.760;6.632;2022-09-20T15:11:02;16.70;90.50
28530;DHT22;15737;49.760;6.632;2022-09-20T15:13:28;16.80;90.60
28530;DHT22;15737;49.760;6.632;2022-09-20T15:15:54;16.90;90.90
28530;DHT22;15737;49.760;6.632;2022-09-20T15:18:29;17.20;90.40
28530;DHT22;15737;49.760;6.632;2022-09-20T15:20:55;17.20;90.20
28530;DHT22;15737;49.760;6.632;2022-09-20T15:23:20;17.20;90.30
28530;DHT22;15737;49.760;6.632;2022-09-20T15:25:50;17.00;90.20
28530;DHT22;15737;49.760;6.632;2022-09-20T15:28:16;16.90;90.60
28530;DHT22;15737;49.760;6.632;2022-09-20T15:30:43;17.00;90.80
28530;DHT22;15737;49.760;6.632;2022-09-20T15:33:09;17.20;90.60
28530;DHT22;15737;49.760;6.632;2022-09-20T15:35:36;17.40;90.50
28530;DHT22;15737;49.760;6.632;2022-09-20T15:38:02;17.60;90.40
28530;DHT22;15737;49.760;6.632;2022-09-20T15:40:28;17.70;90.40
28530;DHT22;15737;49.760;6.632;2022-09-20T15:42:54;17.80;90.40
28530;DHT22;15737;49.760;6.632;2022-09-20T15:45:21;17.80;90.40
28530;DHT22;15737;49.760;6.632;2022-09-20T15:47:47;17.90;90.50
28530;DHT22;15737;49.760;6.632;2022-09-20T15:50:12;17.80;90.50
28530;DHT22;15737;49.760;6.632;2022-09-20T15:52:39;17.80;90.80
28530;DHT22;15737;49.760;6.632;2022-09-20T15:55:06;17.60;91.00
28530;DHT22;15737;49.760;6.632;2022-09-20T15:57:32;17.50;91.20
28530;DHT22;15737;49.760;6.632;2022-09-20T15:59:58;17.50;91.50
28530;DHT22;15737;49.760;6.632;2022-09-20T16:02:25;17.50;91.50
28530;DHT22;15737;49.760;6.632;2022-09-20T16:04:51;17.40;91.70
28530;DHT22;15737;49.760;6.632;2022-09-20T16:07:23;17.30;91.90
28530;DHT22;15737;49.760;6.632;2022-09-20T16:09:53;17.30;92.10
28530;DHT22;15737;49.760;6.632;2022-09-20T16:12:20;17.50;92.20
28530;DHT22;15737;49.760;6.632;2022-09-20T16:14:46;17.60;92.10
28530;DHT22;15737;49.760;6.632;2022-09-20T16:17:16;17.60;91.90
28530;DHT22;15737;49.760;6.632;2022-09-20T16:19:42;17.60;91.90
28530;DHT22;15737;49.760;6.632;2022-09-20T16:22:09;17.60;91.90
28530;DHT22;15737;49.760;6.632;2022-09-20T16:24:35;17.50;91.90
28530;DHT22;15737;49.760;6.632;2022-09-20T16:27:05;17.20;91.70
28530;DHT22;15737;49.760;6.632;2022-09-20T16:29:32;16.80;92.50
28530;DHT22;15737;49.760;6.632;2022-09-20T16:32:14;16.50;92.60
28530;DHT22;15737;49.760;6.632;2022-09-20T16:34:39;16.20;93.00
28530;DHT22;15737;49.760;6.632;2022-09-20T16:37:08;15.90;93.30
28530;DHT22;15737;49.760;6.632;2022-09-20T16:39:36;15.70;93.70
28530;DHT22;15737;49.760;6.632;2022-09-20T16:42:04;15.50;94.00
28530;DHT22;15737;49.760;6.632;2022-09-20T16:44:38;15.30;94.10
28530;DHT22;15737;49.760;6.632;2022-09-20T16:47:10;15.10;94.40
28530;DHT22;15737;49.760;6.632;2022-09-20T16:49:37;15.00;94.60
28530;DHT22;15737;49.760;6.632;2022-09-20T16:52:04;14.90;94.70
28530;DHT22;15737;49.760;6.632;2022-09-20T16:54:29;14.90;94.90
28530;DHT22;15737;49.760;6.632;2022-09-20T16:56:55;14.70;94.90
28530;DHT22;15737;49.760;6.632;2022-09-20T16:59:20;14.70;95.10
28530;DHT22;15737;49.760;6.632;2022-09-20T17:01:47;14.70;95.20
28530;DHT22;15737;49.760;6.632;2022-09-20T17:04:13;14.70;95.10
28530;DHT22;15737;49.760;6.632;2022-09-20T17:06:41;14.70;95.20
28530;DHT22;15737;49.760;6.632;2022-09-20T17:09:08;14.70;95.30
28530;DHT22;15737;49.760;6.632;2022-09-20T17:11:36;14.70;95.40
28530;DHT22;15737;49.760;6.632;2022-09-20T17:16:36;14.90;95.30
28530;DHT22;15737;49.760;6.632;2022-09-20T17:19:06;14.80;95.40
28530;DHT22;15737;49.760;6.632;2022-09-20T17:21:34;14.50;95.70
28530;DHT22;15737;49.760;6.632;2022-09-20T17:24:01;14.30;96.00
28530;DHT22;15737;49.760;6.632;2022-09-20T17:26:30;14.10;96.30
28530;DHT22;15737;49.760;6.632;2022-09-20T17:29:01;13.90;96.80
28530;DHT22;15737;49.760;6.632;2022-09-20T17:31:29;13.70;97.20
28530;DHT22;15737;49.760;6.632;2022-09-20T17:33:56;13.50;97.50
28530;DHT22;15737;49.760;6.632;2022-09-20T17:36:28;13.40;98.00
28530;DHT22;15737;49.760;6.632;2022-09-20T17:38:56;13.20;98.30
28530;DHT22;15737;49.760;6.632;2022-09-20T17:41:23;13.10;98.70
28530;DHT22;15737;49.760;6.632;2022-09-20T17:43:59;13.00;99.10
28530;DHT22;15737;49.760;6.632;2022-09-20T17:46:27;12.90;99.40
28530;DHT22;15737;49.760;6.632;2022-09-20T17:49:00;12.80;99.50
28530;DHT22;15737;49.760;6.632;2022-09-20T17:51:28;12.80;99.70
28530;DHT22;15737;49.760;6.632;2022-09-20T17:53:54;12.80;99.70
28530;DHT22;15737;49.760;6.632;2022-09-20T17:56:23;12.70;99.90
28530;DHT22;15737;49.760;6.632;2022-09-20T17:58:53;12.60;99.90
28530;DHT22;15737;49.760;6.632;2022-09-20T18:01:21;12.50;99.90
28530;DHT22;15737;49.760;6.632;2022-09-20T18:03:47;12.40;99.90
28530;DHT22;15737;49.760;6.632;2022-09-20T18:06:16;12.30;99.90
28530;DHT22;15737;49.760;6.632;2022-09-20T18:08:51;12.10;99.90
28530;DHT22;15737;49.760;6.632;2022-09-20T18:11:19;12.10;99.90
28530;DHT22;15737;49.760;6.632;2022-09-20T18:13:45;12.00;99.90
28530;DHT22;15737;49.760;6.632;2022-09-20T18:16:12;11.90;99.90
28530;DHT22;15737;49.760;6.632;2022-09-20T18:18:42;11.90;99.90
28530;DHT22;15737;49.760;6.632;2022-09-20T18:21:29;12.00;99.90
28530;DHT22;15737;49.760;6.632;2022-09-20T18:23:55;11.90;99.90
28530;DHT22;15737;49.760;6.632;2022-09-20T18:26:27;11.80;99.90
28530;DHT22;15737;49.760;6.632;2022-09-20T18:28:59;11.70;99.90
28530;DHT22;15737;49.760;6.632;2022-09-20T18:31:37;11.70;99.90
28530;DHT22;15737;49.760;6.632;2022-09-20T18:34:13;11.70;99.90
28530;DHT22;15737;49.760;6.632;2022-09-20T18:36:46;11.70;99.90
28530;DHT22;15737;49.760;6.632;2022-09-20T18:39:22;11.80;99.90
28530;DHT22;15737;49.760;6.632;2022-09-20T18:41:48;11.80;99.90
28530;DHT22;15737;49.760;6.632;2022-09-20T18:44:15;11.80;99.90
28530;DHT22;15737;49.760;6.632;2022-09-20T18:46:42;11.70;99.90
28530;DHT22;15737;49.760;6.632;2022-09-20T18:49:09;11.60;99.90
28530;DHT22;15737;49.760;6.632;2022-09-20T18:51:35;11.60;99.90
28530;DHT22;15737;49.760;6.632;2022-09-20T18:54:01;11.50;99.90
28530;DHT22;15737;49.760;6.632;2022-09-20T18:56:28;11.50;99.90
28530;DHT22;15737;49.760;6.632;2022-09-20T18:59:04;11.40;99.90
28530;DHT22;15737;49.760;6.632;2022-09-20T19:10:25;11.20;99.90
28530;DHT22;15737;49.760;6.632;2022-09-20T19:13:36;11.10;99.90
28530;DHT22;15737;49.760;6.632;2022-09-20T19:16:16;11.10;99.90
28530;DHT22;15737;49.760;6.632;2022-09-20T19:19:27;11.00;99.90
28530;DHT22;15737;49.760;6.632;2022-09-20T19:27:14;11.10;99.90
28530;DHT22;15737;49.760;6.632;2022-09-20T19:29:40;11.20;99.90
28530;DHT22;15737;49.760;6.632;2022-09-20T19:32:14;11.20;99.90
28530;DHT22;15737;49.760;6.632;2022-09-20T19:34:43;11.30;99.90
28530;DHT22;15737;49.760;6.632;2022-09-20T19:37:35;11.30;99.90
28530;DHT22;15737;49.760;6.632;2022-09-20T19:46:33;10.80;99.90
28530;DHT22;15737;49.760;6.632;2022-09-20T19:51:37;10.60;99.90
28530;DHT22;15737;49.760;6.632;2022-09-20T19:54:04;10.50;99.90
28530;DHT22;15737;49.760;6.632;2022-09-20T19:59:08;10.30;99.90
28530;DHT22;15737;49.760;6.632;2022-09-20T20:01:34;10.20;99.90
28530;DHT22;15737;49.760;6.632;2022-09-20T20:04:00;10.20;99.90
28530;DHT22;15737;49.760;6.632;2022-09-20T20:06:31;10.20;99.90
28530;DHT22;15737;49.760;6.632;2022-09-20T20:12:07;10.20;99.90
28530;DHT22;15737;49.760;6.632;2022-09-20T20:14:52;10.30;99.90
28530;DHT22;15737;49.760;6.632;2022-09-20T20:26:20;10.20;99.90
28530;DHT22;15737;49.760;6.632;2022-09-20T20:28:45;10.20;99.90
28530;DHT22;15737;49.760;6.632;2022-09-20T20:31:11;10.10;99.90
28530;DHT22;15737;49.760;6.632;2022-09-20T20:33:38;10.10;99.90
28530;DHT22;15737;49.760;6.632;2022-09-20T20:36:04;10.10;99.90
28530;DHT22;15737;49.760;6.632;2022-09-20T20:38:34;10.00;99.90
28530;DHT22;15737;49.760;6.632;2022-09-20T20:43:35;10.00;99.90
28530;DHT22;15737;49.760;6.632;2022-09-20T20:46:02;9.90;99.90
28530;DHT22;15737;49.760;6.632;2022-09-20T20:48:28;9.90;99.90
28530;DHT22;15737;49.760;6.632;2022-09-20T20:51:06;9.90;99.90